Time;durP1;ratioP1;P1;durP2;ratioP2;P2;SDS_P1;SDS_P2;PMS_P1;PMS_P2;Temp;Humidity;BMP_temperature;BMP_pressure;BME280_temperature;BME280_humidity;BME280_pressure;Samples;Min_cycle;Max_cycle;Signal;HPM_P1;HPM_P2
2022/06/14 00:00:55;;;;;;;4.15;3.85;;;22.60;96.90;;;;;;6213074;23;20096;-73
2022/06/14 00:03:33;;;;;;;4.18;3.88;;;22.70;97.10;;;;;;6214702;23;19997;-73
2022/06/14 00:06:08;;;;;;;4.28;3.97;;;22.60;97.10;;;;;;6213112;23;20009;-73
2022/06/14 00:08:34;;;;;;;4.30;3.92;;;22.60;97.20;;;;;;6214828;23;20008;-73
2022/06/14 00:11:05;;;;;;;4.25;4.05;;;22.60;97.40;;;;;;6214432;23;20421;-73
2022/06/14 00:13:31;;;;;;;4.75;4.35;;;22.50;97.60;;;;;;6214570;23;20032;-74
2022/06/14 00:15:57;;;;;;;4.28;3.97;;;22.50;97.60;;;;;;6214581;23;20004;-73
2022/06/14 00:18:23;;;;;;;4.20;3.90;;;22.60;97.60;;;;;;6214494;23;20059;-73
2022/06/14 00:20:49;;;;;;;4.25;4.03;;;22.60;97.60;;;;;;6214339;23;20001;-73
2022/06/14 00:23:16;;;;;;;4.15;3.95;;;22.60;97.60;;;;;;6212846;23;20001;-74
2022/06/14 00:25:46;;;;;;;5.22;4.82;;;22.60;97.70;;;;;;6214773;23;20023;-73
2022/06/14 00:28:14;;;;;;;4.80;4.35;;;22.60;97.80;;;;;;6214685;23;19997;-73
2022/06/14 00:30:42;;;;;;;3.92;3.72;;;22.60;97.90;;;;;;6214562;23;19997;-73
2022/06/14 00:33:08;;;;;;;4.43;4.13;;;22.60;98.00;;;;;;6214337;23;20072;-73
2022/06/14 00:35:34;;;;;;;5.22;4.78;;;22.50;98.10;;;;;;6214388;23;20028;-73
2022/06/14 00:38:01;;;;;;;4.78;4.30;;;22.50;98.10;;;;;;6214273;23;20071;-73
2022/06/14 00:40:30;;;;;;;4.13;3.80;;;22.50;98.20;;;;;;6214108;23;20008;-73
2022/06/14 00:42:57;;;;;;;4.03;3.78;;;22.50;98.20;;;;;;6214151;23;20000;-73
2022/06/14 00:45:22;;;;;;;4.00;3.78;;;22.50;98.20;;;;;;6214275;23;20061;-73
2022/06/14 00:47:56;;;;;;;4.70;4.40;;;22.50;98.30;;;;;;6214261;23;20072;-73
2022/06/14 00:50:27;;;;;;;6.40;4.07;;;22.50;98.20;;;;;;6214591;23;20314;-73
2022/06/14 00:53:22;;;;;;;4.33;4.00;;;22.50;98.40;;;;;;6214527;23;20440;-73
2022/06/14 00:55:57;;;;;;;10.30;4.18;;;22.50;98.40;;;;;;6201877;23;20013;-73
2022/06/14 00:58:37;;;;;;;4.35;4.15;;;22.50;98.60;;;;;;6214280;23;20341;-74
2022/06/14 01:01:37;;;;;;;4.35;3.97;;;22.40;98.70;;;;;;6213849;23;20452;-71
2022/06/14 01:04:15;;;;;;;5.72;5.25;;;22.40;98.70;;;;;;6163557;23;20012;-73
2022/06/14 01:06:56;;;;;;;5.88;4.57;;;22.40;98.70;;;;;;6214109;23;20036;-73
2022/06/14 01:09:43;;;;;;;6.13;4.15;;;22.50;98.90;;;;;;6214029;23;20033;-74
2022/06/14 01:12:14;;;;;;;4.97;3.90;;;22.40;99.00;;;;;;6214049;23;20011;-73
2022/06/14 01:15:02;;;;;;;4.40;4.10;;;22.30;99.10;;;;;;6213994;23;20005;-73
2022/06/14 01:17:30;;;;;;;4.38;4.07;;;22.30;99.40;;;;;;6212538;23;20400;-73
2022/06/14 01:19:57;;;;;;;4.90;4.60;;;22.30;99.40;;;;;;6211819;23;20012;-73
2022/06/14 01:22:25;;;;;;;4.47;4.07;;;22.40;99.30;;;;;;6213994;23;20012;-73
2022/06/14 01:24:51;;;;;;;4.45;4.15;;;22.40;99.30;;;;;;6214167;23;20067;-73
2022/06/14 01:27:19;;;;;;;4.90;4.15;;;22.40;99.20;;;;;;6214130;23;20024;-73
2022/06/14 01:30:06;;;;;;;6.97;4.30;;;22.40;99.40;;;;;;6213602;23;20028;-73
2022/06/14 01:32:37;;;;;;;5.45;4.80;;;22.40;99.30;;;;;;6213880;23;20004;-73
2022/06/14 01:35:07;;;;;;;6.93;4.17;;;22.40;99.10;;;;;;6213871;23;20055;-73
2022/06/14 01:37:34;;;;;;;4.65;4.20;;;22.50;99.10;;;;;;6213770;23;20004;-73
2022/06/14 01:40:03;;;;;;;5.25;4.80;;;22.50;99.00;;;;;;6213451;23;20011;-73
2022/06/14 01:42:55;;;;;;;4.93;4.63;;;22.50;99.00;;;;;;6213901;23;20001;-73
2022/06/14 01:45:39;;;;;;;4.93;4.53;;;22.60;98.90;;;;;;6213761;23;20338;-73
2022/06/14 01:48:23;;;;;;;4.72;4.43;;;22.60;98.90;;;;;;6212123;23;20385;-74
2022/06/14 01:54:00;;;;;;;4.95;4.47;;;22.60;99.20;;;;;;6213498;23;20498;-73
2022/06/14 01:56:56;;;;;;;4.80;4.50;;;22.50;99.30;;;;;;6212128;23;20001;-74
2022/06/14 01:59:27;;;;;;;5.47;4.97;;;22.50;99.30;;;;;;6213467;23;20063;-73
2022/06/14 02:02:02;;;;;;;5.05;4.75;;;22.50;99.40;;;;;;6213713;23;20023;-73
2022/06/14 02:05:00;;;;;;;4.47;4.18;;;22.50;99.30;;;;;;6213461;23;20008;-73
2022/06/14 02:07:47;;;;;;;5.35;4.35;;;22.50;99.40;;;;;;6212045;23;20396;-74
2022/06/14 02:10:25;;;;;;;4.28;3.88;;;22.50;99.20;;;;;;6213360;23;20009;-73
2022/06/14 02:13:12;;;;;;;4.00;3.80;;;22.50;99.10;;;;;;6213492;23;20501;-74
2022/06/14 02:15:52;;;;;;;3.85;3.55;;;22.50;98.80;;;;;;6213677;23;20019;-73
2022/06/14 02:18:28;;;;;;;4.57;3.75;;;22.50;98.60;;;;;;6213213;23;20001;-73
2022/06/14 02:21:06;;;;;;;4.85;4.07;;;22.50;98.70;;;;;;6212029;23;20005;-73
2022/06/14 02:23:39;;;;;;;6.38;4.30;;;22.60;98.30;;;;;;6213431;23;20072;-74
2022/06/14 02:26:26;;;;;;;4.07;3.83;;;22.60;98.40;;;;;;6213482;23;20001;-73
2022/06/14 02:29:02;;;;;;;3.75;3.45;;;22.50;98.40;;;;;;6213449;23;20000;-73
2022/06/14 02:31:47;;;;;;;4.25;3.85;;;22.50;98.20;;;;;;6213572;23;20008;-73
2022/06/14 02:34:17;;;;;;;3.80;3.60;;;22.50;97.80;;;;;;6213383;23;20197;-73
2022/06/14 02:36:53;;;;;;;3.58;3.38;;;22.50;97.70;;;;;;6213493;23;20011;-73
2022/06/14 02:39:32;;;;;;;4.28;3.90;;;22.40;97.70;;;;;;6211790;23;20004;-73
2022/06/14 02:42:05;;;;;;;3.63;3.35;;;22.40;98.20;;;;;;6213405;23;20024;-73
2022/06/14 02:44:51;;;;;;;3.33;3.03;;;22.40;97.50;;;;;;6211627;23;20380;-73
2022/06/14 02:47:42;;;;;;;3.63;3.33;;;22.40;97.50;;;;;;6213446;23;19997;-73
2022/06/14 02:50:12;;;;;;;5.03;3.40;;;22.40;97.30;;;;;;6213272;23;20005;-73
2022/06/14 02:53:07;;;;;;;3.65;3.45;;;22.40;97.30;;;;;;6213580;23;20220;-73
2022/06/14 02:55:43;;;;;;;3.40;3.17;;;22.40;97.40;;;;;;6213324;23;20004;-73
2022/06/14 02:58:28;;;;;;;4.88;3.13;;;22.30;97.20;;;;;;6213354;23;20005;-73
2022/06/14 03:01:16;;;;;;;2.97;2.78;;;22.30;97.30;;;;;;6214165;23;20057;-73
2022/06/14 03:03:55;;;;;;;4.78;3.67;;;22.30;97.20;;;;;;6215547;23;20079;-71
2022/06/14 03:06:27;;;;;;;3.88;3.58;;;22.20;97.10;;;;;;6215187;23;20027;-73
2022/06/14 03:08:59;;;;;;;3.72;3.10;;;22.20;97.10;;;;;;6215295;23;20004;-73
2022/06/14 03:11:43;;;;;;;;;;;22.20;96.90;;;;;;6215680;23;20099;-73
2022/06/14 03:14:37;;;;;;;2.45;2.35;;;22.20;96.80;;;;;;6215151;23;19899;-73
2022/06/14 03:17:24;;;;;;;3.25;2.95;;;22.20;96.70;;;;;;6215488;23;20008;-73
2022/06/14 03:20:21;;;;;;;3.50;3.25;;;22.20;96.70;;;;;;6213218;23;20017;-73
2022/06/14 03:23:08;;;;;;;2.92;2.53;;;22.20;96.50;;;;;;6179926;23;20011;-73
2022/06/14 03:25:50;;;;;;;3.35;3.05;;;22.30;95.80;;;;;;6215292;23;20024;-73
2022/06/14 03:28:40;;;;;;;3.00;2.80;;;22.30;95.70;;;;;;6214913;23;20047;-73
2022/06/14 03:31:29;;;;;;;2.63;2.35;;;22.40;95.00;;;;;;6215127;23;19996;-73
2022/06/14 03:33:58;;;;;;;3.13;2.50;;;22.50;94.60;;;;;;6197959;23;20329;-73
2022/06/14 03:36:24;;;;;;;2.75;2.55;;;22.60;94.70;;;;;;6213592;23;20058;-73
2022/06/14 03:39:03;;;;;;;2.78;2.60;;;22.60;94.30;;;;;;6214655;23;20079;-74
2022/06/14 03:41:33;;;;;;;2.50;2.30;;;22.60;94.40;;;;;;6213506;23;20032;-73
2022/06/14 03:44:01;;;;;;;2.70;2.50;;;22.70;94.00;;;;;;6215061;23;20377;-73
2022/06/14 03:46:32;;;;;;;2.47;2.38;;;22.70;93.80;;;;;;6214846;23;19997;-73
2022/06/14 03:49:12;;;;;;;3.92;2.85;;;22.70;93.60;;;;;;6214854;23;20004;-73
2022/06/14 03:52:00;;;;;;;2.65;2.45;;;22.70;94.10;;;;;;6214793;23;20059;-74
2022/06/14 03:54:37;;;;;;;5.57;2.65;;;22.50;94.70;;;;;;6213152;23;20036;-73
2022/06/14 03:57:12;;;;;;;4.20;2.50;;;22.60;95.10;;;;;;6215055;23;20008;-73
2022/06/14 03:59:50;;;;;;;3.10;2.85;;;22.50;95.10;;;;;;6214247;23;20277;-73
2022/06/14 04:02:54;;;;;;;4.38;2.65;;;22.50;95.60;;;;;;6214623;23;19996;-73
2022/06/14 04:05:34;;;;;;;3.00;2.83;;;22.50;95.30;;;;;;6214655;23;20007;-73
2022/06/14 04:08:24;;;;;;;2.42;2.33;;;22.40;95.60;;;;;;6214577;23;19997;-73
2022/06/14 04:11:08;;;;;;;3.00;2.80;;;22.40;95.70;;;;;;6214410;23;20374;-73
2022/06/14 04:13:43;;;;;;;6.32;3.00;;;22.40;96.10;;;;;;6213909;23;20442;-73
2022/06/14 04:16:26;;;;;;;3.90;2.80;;;22.50;98.00;;;;;;6214696;23;20012;-74
2022/06/14 04:18:52;;;;;;;6.40;2.60;;;22.50;97.70;;;;;;6214150;23;20009;-73
2022/06/14 04:21:48;;;;;;;3.33;2.92;;;22.50;96.20;;;;;;6214510;23;20007;-73
2022/06/14 04:24:26;;;;;;;3.08;2.67;;;22.40;96.10;;;;;;6214565;23;19997;-73
2022/06/14 04:26:54;;;;;;;2.92;2.72;;;22.50;96.30;;;;;;6214359;23;19997;-73
2022/06/14 04:29:42;;;;;;;6.57;2.95;;;22.40;96.40;;;;;;6214517;23;20035;-73
2022/06/14 04:32:11;;;;;;;3.65;3.13;;;22.30;96.50;;;;;;6214422;23;20007;-73
2022/06/14 04:35:00;;;;;;;6.53;3.13;;;22.30;96.60;;;;;;6214581;23;20001;-73
2022/06/14 04:37:40;;;;;;;5.18;2.97;;;22.40;96.70;;;;;;6214424;23;20008;-73
2022/06/14 04:40:18;;;;;;;3.38;2.78;;;22.40;96.70;;;;;;6214213;23;20448;-74
2022/06/14 04:43:01;;;;;;;3.00;2.90;;;22.30;97.00;;;;;;6214341;23;20441;-73
2022/06/14 04:45:40;;;;;;;3.05;2.85;;;22.30;97.20;;;;;;6214363;23;20035;-73
2022/06/14 04:48:18;;;;;;;3.20;2.90;;;22.30;97.40;;;;;;6214575;23;20425;-73
2022/06/14 04:50:53;;;;;;;3.25;3.05;;;22.40;98.00;;;;;;6214292;23;20000;-74
2022/06/14 04:53:45;;;;;;;5.53;3.30;;;22.40;97.70;;;;;;6214240;23;19996;-73
2022/06/14 04:56:28;;;;;;;5.13;3.42;;;22.40;97.60;;;;;;6214436;23;20011;-74
2022/06/14 04:59:12;;;;;;;3.92;3.58;;;22.40;97.80;;;;;;6213806;23;20008;-74
2022/06/14 05:01:56;;;;;;;3.72;3.40;;;22.40;97.90;;;;;;6214138;23;20087;-74
2022/06/14 05:04:32;;;;;;;3.95;3.65;;;22.50;98.00;;;;;;6214001;23;20008;-73
2022/06/14 05:07:08;;;;;;;3.97;3.40;;;22.50;97.90;;;;;;6214250;23;19993;-73
2022/06/14 05:09:53;;;;;;;3.60;3.30;;;22.60;98.00;;;;;;6214113;23;20004;-73
2022/06/14 05:12:24;;;;;;;3.55;3.35;;;22.50;98.00;;;;;;6212650;23;20402;-73
2022/06/14 05:14:57;;;;;;;6.10;3.55;;;22.50;98.30;;;;;;6214279;23;20055;-74
2022/06/14 05:17:32;;;;;;;3.58;3.30;;;22.60;98.30;;;;;;6214208;23;20004;-73
2022/06/14 05:20:16;;;;;;;7.10;2.90;;;22.70;98.30;;;;;;6213604;23;20081;-74
2022/06/14 05:23:28;;;;;;;4.38;3.78;;;22.80;97.80;;;;;;6213937;23;20421;-73
2022/06/14 05:26:07;;;;;;;3.28;3.08;;;22.80;98.00;;;;;;6202256;23;20016;-74
2022/06/14 05:28:46;;;;;;;3.47;3.15;;;22.90;98.60;;;;;;6214011;23;20028;-73
2022/06/14 05:31:41;;;;;;;5.80;3.50;;;22.90;98.30;;;;;;6213953;23;20332;-74
2022/06/14 05:34:19;;;;;;;3.22;3.03;;;23.00;98.40;;;;;;6201566;23;20491;-74
2022/06/14 05:37:03;;;;;;;3.75;2.78;;;23.00;99.00;;;;;;6214035;23;20004;-74
2022/06/14 05:40:05;;;;;;;3.58;3.38;;;23.10;99.00;;;;;;6211965;23;20013;-74
2022/06/14 05:42:37;;;;;;;3.20;3.00;;;23.20;98.20;;;;;;6211454;23;20333;-74
2022/06/14 05:45:03;;;;;;;3.25;2.78;;;23.30;98.90;;;;;;6213710;23;20008;-73
2022/06/14 05:47:41;;;;;;;3.10;2.90;;;23.30;98.40;;;;;;6213986;23;20310;-74
2022/06/14 05:50:17;;;;;;;2.97;2.80;;;23.40;98.40;;;;;;6213773;23;20429;-74
2022/06/14 05:53:04;;;;;;;3.40;3.10;;;23.40;97.70;;;;;;6212192;23;20005;-73
2022/06/14 05:55:37;;;;;;;2.47;2.38;;;23.50;97.30;;;;;;6213841;23;20429;-74
2022/06/14 05:58:15;;;;;;;2.47;2.33;;;23.60;96.20;;;;;;6213809;23;20011;-73
2022/06/14 06:00:52;;;;;;;1.98;1.80;;;23.70;96.20;;;;;;6213571;23;20008;-74
2022/06/14 06:03:18;;;;;;;1.75;1.65;;;23.80;92.00;;;;;;6213568;23;20001;-73
2022/06/14 06:05:50;;;;;;;1.80;1.70;;;23.90;91.90;;;;;;6213851;23;20007;-73
2022/06/14 06:08:26;;;;;;;1.40;1.30;;;24.00;90.80;;;;;;6211991;23;20009;-74
2022/06/14 06:10:58;;;;;;;5.43;1.40;;;24.10;90.50;;;;;;6213600;23;20368;-73
2022/06/14 06:13:44;;;;;;;5.20;1.45;;;24.20;90.10;;;;;;6213606;23;19997;-73
2022/06/14 06:16:18;;;;;;;1.30;1.20;;;24.40;87.70;;;;;;6213660;23;20004;-73
2022/06/14 06:18:54;;;;;;;1.70;1.60;;;24.40;88.40;;;;;;6211738;23;20078;-72
2022/06/14 06:21:25;;;;;;;1.67;1.58;;;24.40;90.10;;;;;;6213577;23;19996;-74
2022/06/14 06:24:13;;;;;;;2.17;1.97;;;24.40;90.00;;;;;;6213782;23;20032;-74
2022/06/14 06:26:42;;;;;;;2.15;1.42;;;24.40;86.60;;;;;;6213542;23;20043;-73
2022/06/14 06:29:24;;;;;;;10.35;2.53;;;24.50;87.10;;;;;;6212660;23;20009;-73
2022/06/14 06:31:50;;;;;;;7.32;1.65;;;24.60;86.70;;;;;;6213539;23;20245;-73
2022/06/14 06:34:17;;;;;;;1.48;1.42;;;24.70;84.80;;;;;;6213569;23;20027;-74
2022/06/14 06:37:06;;;;;;;1.52;1.52;;;24.80;86.00;;;;;;6215119;23;20028;-73
2022/06/14 06:39:52;;;;;;;1.33;1.33;;;24.80;86.30;;;;;;6213800;23;20004;-73
2022/06/14 06:42:36;;;;;;;1.88;1.27;;;24.90;82.60;;;;;;6214008;23;20437;-74
2022/06/14 06:45:22;;;;;;;1.58;1.48;;;24.90;84.70;;;;;;6215623;23;20004;-73
2022/06/14 06:48:23;;;;;;;1.80;1.70;;;25.00;85.70;;;;;;6215698;23;20001;-74
2022/06/14 06:50:53;;;;;;;2.53;2.00;;;25.00;84.60;;;;;;6215415;23;20020;-73
2022/06/14 06:53:21;;;;;;;2.08;1.58;;;25.00;85.30;;;;;;6215496;23;20005;-73
2022/06/14 06:56:06;;;;;;;1.63;1.52;;;25.00;84.30;;;;;;6215400;23;20021;-74
2022/06/14 06:58:46;;;;;;;1.67;1.58;;;25.10;84.20;;;;;;6215206;23;19997;-74
2022/06/14 07:01:31;;;;;;;4.15;1.70;;;25.10;83.10;;;;;;6213645;23;20001;-73
2022/06/14 07:07:33;;;;;;;1.73;1.40;;;25.20;85.50;;;;;;6215389;23;20015;-74
2022/06/14 07:10:11;;;;;;;1.90;1.80;;;25.20;84.40;;;;;;6215247;23;20004;-73
2022/06/14 07:12:44;;;;;;;2.45;1.50;;;25.20;86.80;;;;;;6215710;23;20001;-74
2022/06/14 07:15:20;;;;;;;2.63;1.88;;;25.20;87.50;;;;;;6215432;23;20000;-73
2022/06/14 07:17:54;;;;;;;1.60;1.50;;;25.20;87.80;;;;;;6213570;23;20099;-71
2022/06/14 07:20:32;;;;;;;2.80;1.63;;;25.30;87.80;;;;;;6215377;23;20018;-71
2022/06/14 07:23:21;;;;;;;1.60;1.50;;;25.30;84.20;;;;;;6216105;23;19997;-72
2022/06/14 07:26:21;;;;;;;1.60;1.50;;;25.40;84.80;;;;;;6215572;23;20077;-73
2022/06/14 07:28:56;;;;;;;4.22;1.20;;;25.50;83.70;;;;;;6150414;23;20015;-71
2022/06/14 07:31:34;;;;;;;1.40;1.35;;;25.60;82.60;;;;;;6215209;23;20001;-74
2022/06/14 07:34:01;;;;;;;2.60;1.70;;;25.60;84.30;;;;;;6214990;23;20004;-73
2022/06/14 07:36:40;;;;;;;1.67;1.60;;;25.60;83.70;;;;;;6214736;23;20000;-72
2022/06/14 07:39:19;;;;;;;1.75;1.65;;;25.70;81.80;;;;;;6214808;23;20008;-74
2022/06/14 07:41:53;;;;;;;1.23;1.23;;;25.70;83.60;;;;;;6214934;23;20000;-74
2022/06/14 07:44:45;;;;;;;1.13;1.13;;;25.80;82.60;;;;;;6214941;23;20433;-74
2022/06/14 07:47:11;;;;;;;1.50;1.40;;;25.80;81.40;;;;;;6215115;23;20387;-74
2022/06/14 07:49:58;;;;;;;2.60;1.65;;;25.70;82.10;;;;;;6214775;23;20025;-72
2022/06/14 07:52:30;;;;;;;1.58;1.48;;;25.70;82.80;;;;;;6215057;23;20012;-72
2022/06/14 07:55:08;;;;;;;1.65;1.40;;;25.70;83.60;;;;;;6214805;23;20451;-72
2022/06/14 07:57:39;;;;;;;2.50;1.60;;;25.70;82.10;;;;;;6214499;23;20000;-74
2022/06/14 08:03:02;;;;;;;2.45;1.92;;;25.80;83.60;;;;;;6214749;23;20503;-73
2022/06/14 08:05:35;;;;;;;5.65;1.60;;;25.80;82.60;;;;;;6214597;23;19997;-74
2022/06/14 08:08:04;;;;;;;3.38;2.00;;;25.90;82.40;;;;;;6214781;23;20452;-74
2022/06/14 08:10:35;;;;;;;3.13;1.50;;;25.90;82.20;;;;;;6214645;23;20008;-74
2022/06/14 08:13:07;;;;;;;1.77;1.50;;;26.00;83.30;;;;;;6214644;23;20456;-74
2022/06/14 08:15:44;;;;;;;1.85;1.75;;;26.00;79.90;;;;;;6214742;23;20004;-74
2022/06/14 08:18:28;;;;;;;5.28;1.70;;;26.10;82.40;;;;;;6214676;23;20011;-75
2022/06/14 08:20:58;;;;;;;2.50;2.30;;;26.10;81.90;;;;;;6214711;23;20459;-74
2022/06/14 08:23:49;;;;;;;1.45;1.35;;;26.10;82.80;;;;;;6214818;23;20000;-74
2022/06/14 08:26:22;;;;;;;2.15;1.70;;;26.20;82.10;;;;;;6214523;23;20005;-74
2022/06/14 08:29:10;;;;;;;1.77;1.40;;;26.20;79.60;;;;;;6214394;23;20095;-74
2022/06/14 08:31:52;;;;;;;1.45;1.45;;;26.20;81.00;;;;;;6214521;23;20329;-74
2022/06/14 08:34:28;;;;;;;1.58;1.48;;;26.20;80.40;;;;;;6214622;23;19996;-74
2022/06/14 08:37:06;;;;;;;4.45;1.90;;;26.30;80.90;;;;;;6214390;23;20008;-74
2022/06/14 08:39:51;;;;;;;2.90;1.80;;;26.40;79.50;;;;;;6214461;23;20082;-74
2022/06/14 08:42:27;;;;;;;3.95;1.92;;;26.30;78.70;;;;;;6213135;23;20005;-74
2022/06/14 08:44:57;;;;;;;2.60;1.40;;;26.30;79.00;;;;;;6214323;23;20468;-74
2022/06/14 08:47:55;;;;;;;2.80;2.30;;;26.30;78.50;;;;;;6214303;23;20009;-74
2022/06/14 08:50:24;;;;;;;1.90;1.80;;;26.30;81.30;;;;;;6214439;23;20008;-74
2022/06/14 08:53:08;;;;;;;4.82;2.47;;;26.40;79.30;;;;;;6214591;23;20000;-74
2022/06/14 08:55:56;;;;;;;2.38;2.20;;;26.50;80.90;;;;;;6214306;23;20464;-71
2022/06/14 08:59:17;;;;;;;3.20;2.08;;;26.60;80.90;;;;;;6213757;23;20005;-74
2022/06/14 09:01:59;;;;;;;4.03;1.87;;;26.70;81.00;;;;;;6214323;23;20011;-74
2022/06/14 09:04:56;;;;;;;2.38;2.10;;;26.70;80.80;;;;;;6212457;23;20458;-74
2022/06/14 09:07:58;;;;;;;2.15;1.95;;;26.70;79.40;;;;;;6214231;23;20000;-74
2022/06/14 09:10:42;;;;;;;2.40;2.00;;;26.60;82.10;;;;;;6213964;23;20032;-74
2022/06/14 09:13:32;;;;;;;1.92;1.73;;;26.50;81.30;;;;;;6214062;23;20001;-74
2022/06/14 09:15:57;;;;;;;1.88;1.77;;;26.70;79.50;;;;;;6213970;23;20028;-74
2022/06/14 09:18:49;;;;;;;1.85;1.70;;;26.70;80.70;;;;;;6213870;23;20429;-74
2022/06/14 09:21:30;;;;;;;2.35;1.90;;;26.70;81.10;;;;;;6213998;23;20103;-74
2022/06/14 09:24:38;;;;;;;2.63;1.65;;;26.80;79.50;;;;;;6213811;23;20340;-74
2022/06/14 09:27:16;;;;;;;1.88;1.77;;;26.90;80.20;;;;;;6213739;23;20004;-74
2022/06/14 09:30:00;;;;;;;2.25;1.58;;;26.90;81.00;;;;;;6211056;23;20043;-74
2022/06/14 09:33:10;;;;;;;1.70;1.60;;;27.00;80.50;;;;;;6208134;23;20000;-74
2022/06/14 09:35:45;;;;;;;1.92;1.75;;;27.10;78.50;;;;;;6207867;23;20005;-74
2022/06/14 09:38:48;;;;;;;3.25;1.52;;;27.30;75.80;;;;;;6207995;23;20001;-74
2022/06/14 09:41:44;;;;;;;3.15;2.05;;;27.30;77.90;;;;;;6208211;23;20027;-74
2022/06/14 09:44:32;;;;;;;1.98;1.88;;;27.30;75.60;;;;;;6208699;23;20004;-74
2022/06/14 09:47:14;;;;;;;1.90;1.80;;;27.40;74.80;;;;;;6208627;23;20444;-74
2022/06/14 09:50:08;;;;;;;2.05;1.63;;;27.40;76.60;;;;;;6207766;23;19996;-74
2022/06/14 09:52:51;;;;;;;1.50;1.42;;;27.40;77.90;;;;;;6208316;23;20278;-74
2022/06/14 09:55:23;;;;;;;2.50;1.80;;;27.50;76.80;;;;;;6208649;23;20004;-74
2022/06/14 09:58:16;;;;;;;2.03;1.90;;;27.60;76.70;;;;;;6208362;23;20293;-74
2022/06/14 10:00:42;;;;;;;2.55;1.65;;;27.70;73.70;;;;;;6208353;23;20070;-74
2022/06/14 10:03:31;;;;;;;1.67;1.58;;;27.70;75.70;;;;;;6208381;23;20001;-74
2022/06/14 10:06:25;;;;;;;2.47;2.05;;;27.80;76.70;;;;;;6208605;23;20434;-74
2022/06/14 10:09:28;;;;;;;4.43;2.03;;;27.80;77.40;;;;;;6208061;23;20443;-74
2022/06/14 10:12:22;;;;;;;1.88;1.77;;;27.80;78.60;;;;;;6205942;23;20375;-74
2022/06/14 10:14:53;;;;;;;2.03;1.92;;;27.80;81.20;;;;;;6209174;23;19996;-74
2022/06/14 10:17:33;;;;;;;2.08;1.98;;;27.90;75.80;;;;;;6208579;23;20377;-74
2022/06/14 10:20:02;;;;;;;2.03;1.80;;;27.90;76.90;;;;;;6208582;23;20009;-75
2022/06/14 10:22:28;;;;;;;2.90;1.90;;;28.00;76.50;;;;;;6208080;23;20001;-74
2022/06/14 10:25:15;;;;;;;2.25;2.05;;;28.10;75.00;;;;;;6208656;23;20362;-74
2022/06/14 10:28:11;;;;;;;2.63;1.90;;;28.10;75.90;;;;;;6208091;23;19996;-75
2022/06/14 10:30:59;;;;;;;4.18;2.08;;;28.30;77.80;;;;;;6208610;23;20005;-74
2022/06/14 10:33:36;;;;;;;1.90;1.80;;;28.50;75.90;;;;;;6206046;23;20013;-74
2022/06/14 10:36:28;;;;;;;4.72;1.77;;;28.60;73.60;;;;;;6207877;23;20004;-74
2022/06/14 10:39:15;;;;;;;1.80;1.70;;;28.70;73.50;;;;;;6167920;23;20004;-74
2022/06/14 10:41:53;;;;;;;4.70;1.83;;;28.70;72.00;;;;;;6208809;23;19997;-74
2022/06/14 10:44:39;;;;;;;1.90;1.40;;;28.80;74.60;;;;;;6209052;23;20075;-74
2022/06/14 10:47:28;;;;;;;2.67;2.00;;;28.80;70.40;;;;;;6207955;23;20004;-74
2022/06/14 10:49:57;;;;;;;1.90;1.80;;;28.80;71.40;;;;;;6207612;23;20004;-75
2022/06/14 10:52:45;;;;;;;1.98;1.88;;;29.00;74.10;;;;;;6207462;23;20009;-74
2022/06/14 10:55:36;;;;;;;2.65;1.65;;;29.10;70.60;;;;;;6208226;23;20032;-74
2022/06/14 10:58:19;;;;;;;2.55;1.50;;;29.40;73.60;;;;;;6208631;23;20078;-74
2022/06/14 11:01:04;;;;;;;1.75;1.65;;;29.40;70.70;;;;;;6207687;23;20001;-74
2022/06/14 11:03:39;;;;;;;2.03;1.92;;;29.50;69.30;;;;;;6207649;23;20055;-74
2022/06/14 11:06:29;;;;;;;2.78;1.60;;;29.60;69.70;;;;;;6207546;23;20008;-74
2022/06/14 11:09:13;;;;;;;2.72;1.80;;;29.70;69.80;;;;;;6206573;23;20008;-74
2022/06/14 11:11:52;;;;;;;1.35;1.35;;;29.70;67.50;;;;;;6208874;23;20088;-75
2022/06/14 11:14:42;;;;;;;2.75;1.98;;;29.70;67.50;;;;;;6208620;23;20348;-74
2022/06/14 11:17:35;;;;;;;1.90;1.80;;;29.90;71.00;;;;;;6207603;23;20035;-75
2022/06/14 11:20:52;;;;;;;1.95;1.83;;;30.00;70.90;;;;;;6208282;23;20465;-74
2022/06/14 11:24:12;;;;;;;3.08;2.10;;;30.10;68.20;;;;;;6159678;23;20139;-73
2022/06/14 11:26:59;;;;;;;2.35;2.03;;;30.00;66.80;;;;;;6117149;23;20009;-72
2022/06/14 11:29:53;;;;;;;1.90;1.80;;;30.20;69.00;;;;;;6209440;23;20007;-72
2022/06/14 11:32:48;;;;;;;1.88;1.67;;;30.30;69.70;;;;;;6209761;23;20008;-72
2022/06/14 11:35:43;;;;;;;2.33;1.60;;;30.30;64.20;;;;;;6208383;23;20217;-72
2022/06/14 11:38:47;;;;;;;3.20;1.80;;;30.20;64.00;;;;;;6209326;23;20004;-72
2022/06/14 11:41:14;;;;;;;2.10;1.98;;;30.40;68.90;;;;;;6210086;23;20444;-72
2022/06/14 11:44:07;;;;;;;4.03;1.90;;;30.60;68.00;;;;;;6209870;23;20024;-72
2022/06/14 11:46:33;;;;;;;1.80;1.70;;;30.60;65.20;;;;;;6209572;23;20040;-72
2022/06/14 11:49:27;;;;;;;2.15;1.60;;;30.60;63.70;;;;;;6208637;23;20009;-72
2022/06/14 11:52:29;;;;;;;3.47;1.73;;;30.70;64.90;;;;;;6208994;23;20001;-72
2022/06/14 11:55:07;;;;;;;2.00;1.90;;;30.90;63.80;;;;;;6210020;23;20058;-72
2022/06/14 11:58:14;;;;;;;2.15;1.83;;;31.00;61.80;;;;;;6210281;23;20082;-72
2022/06/14 12:00:39;;;;;;;2.70;2.47;;;31.00;63.50;;;;;;6209537;23;20009;-72
2022/06/14 12:03:24;;;;;;;2.10;2.00;;;31.00;61.30;;;;;;6209106;23;20594;-72
2022/06/14 12:06:14;;;;;;;4.50;1.60;;;30.90;61.30;;;;;;6209959;23;20001;-72
2022/06/14 12:08:58;;;;;;;2.15;2.00;;;30.90;61.20;;;;;;6209489;23;20003;-72
2022/06/14 12:11:25;;;;;;;4.68;1.80;;;31.00;61.30;;;;;;6209243;23;20001;-72
2022/06/14 12:14:05;;;;;;;3.88;2.00;;;31.00;61.20;;;;;;6209746;23;20054;-75
2022/06/14 12:16:31;;;;;;;1.92;1.83;;;31.20;61.80;;;;;;6208828;23;20024;-72
2022/06/14 12:19:10;;;;;;;2.10;1.90;;;31.20;59.10;;;;;;6208263;23;20012;-72
2022/06/14 12:21:46;;;;;;;2.08;1.90;;;31.30;60.70;;;;;;6213174;23;20003;-74
2022/06/14 12:24:19;;;;;;;3.30;1.90;;;31.40;60.90;;;;;;6215173;23;20001;-75
2022/06/14 12:27:01;;;;;;;2.10;1.92;;;31.50;60.60;;;;;;6215278;23;20024;-75
2022/06/14 12:29:35;;;;;;;5.70;2.40;;;31.60;58.60;;;;;;6214930;23;20008;-75
2022/06/14 12:32:16;;;;;;;2.03;1.92;;;31.80;59.70;;;;;;6213272;23;20387;-76
2022/06/14 12:34:53;;;;;;;2.03;1.80;;;31.70;57.80;;;;;;6214530;23;20055;-75
2022/06/14 12:37:42;;;;;;;3.53;2.00;;;32.00;59.70;;;;;;6214845;23;20364;-76
2022/06/14 12:40:36;;;;;;;2.22;2.08;;;32.00;59.50;;;;;;6214468;23;20007;-75
2022/06/14 12:43:33;;;;;;;2.97;2.20;;;32.00;57.30;;;;;;6214525;23;20031;-76
2022/06/14 12:46:07;;;;;;;1.90;1.80;;;32.10;56.40;;;;;;6194542;23;20435;-75
2022/06/14 12:48:40;;;;;;;1.95;1.85;;;32.00;56.80;;;;;;6215816;23;20058;-76
2022/06/14 12:51:14;;;;;;;2.65;1.95;;;32.10;57.50;;;;;;6215004;23;20619;-72
2022/06/14 12:54:18;;;;;;;2.85;1.90;;;32.50;58.30;;;;;;6214001;23;20007;-72
2022/06/14 12:56:54;;;;;;;2.47;2.28;;;32.50;57.90;;;;;;6214571;23;19996;-74
2022/06/14 12:59:35;;;;;;;2.30;2.10;;;32.50;55.90;;;;;;6214142;23;20008;-75
2022/06/14 13:02:44;;;;;;;2.13;2.03;;;32.40;55.00;;;;;;6214646;23;20004;-75
2022/06/14 13:05:10;;;;;;;2.58;2.10;;;32.70;56.50;;;;;;6214320;23;20024;-72
2022/06/14 13:07:47;;;;;;;2.30;2.20;;;32.80;56.00;;;;;;6214265;23;19996;-74
2022/06/14 13:10:24;;;;;;;1.90;1.80;;;32.70;54.40;;;;;;6214105;23;20008;-73
2022/06/14 13:12:56;;;;;;;2.15;2.05;;;32.90;55.10;;;;;;6214571;23;20001;-72
2022/06/14 13:15:45;;;;;;;3.25;2.45;;;32.90;54.20;;;;;;6214282;23;20005;-72
2022/06/14 13:18:40;;;;;;;3.20;2.13;;;33.00;55.60;;;;;;6214086;23;20001;-72
2022/06/14 13:21:41;;;;;;;9.80;2.22;;;33.20;55.50;;;;;;6179202;23;20024;-72
2022/06/14 13:24:12;;;;;;;2.20;2.10;;;33.00;54.20;;;;;;6171355;23;20015;-72
2022/06/14 13:26:38;;;;;;;;;;;33.00;54.50;;;;;;6214860;23;20009;-72
2022/06/14 13:29:37;;;;;;;2.17;2.03;;;33.10;54.40;;;;;;6213806;23;20349;-72
2022/06/14 13:32:34;;;;;;;1.88;1.77;;;33.10;54.90;;;;;;6213995;23;20005;-72
2022/06/14 13:35:31;;;;;;;2.67;2.00;;;33.20;54.50;;;;;;6214200;23;20489;-72
2022/06/14 13:38:14;;;;;;;3.50;2.20;;;33.00;54.10;;;;;;6212564;23;20329;-72
2022/06/14 13:40:53;;;;;;;4.72;2.03;;;32.70;53.10;;;;;;6213811;23;20425;-72
2022/06/14 13:43:58;;;;;;;2.72;1.88;;;32.90;54.50;;;;;;6214176;23;20001;-72
2022/06/14 13:46:35;;;;;;;2.53;2.13;;;33.20;52.90;;;;;;6197758;23;20015;-72
2022/06/14 13:49:21;;;;;;;2.17;2.08;;;33.50;52.10;;;;;;6213799;23;20001;-72
2022/06/14 13:52:12;;;;;;;4.22;1.90;;;33.60;53.80;;;;;;6212333;23;20005;-72
2022/06/14 13:55:05;;;;;;;3.63;2.30;;;34.00;55.90;;;;;;6213801;23;20332;-72
2022/06/14 13:57:49;;;;;;;2.13;2.03;;;34.10;54.60;;;;;;6213775;23;20008;-72
2022/06/14 14:00:49;;;;;;;2.95;2.22;;;34.30;55.30;;;;;;6213748;23;20008;-72
2022/06/14 14:03:45;;;;;;;2.35;2.25;;;34.10;52.70;;;;;;6209321;23;20425;-72
2022/06/14 14:07:09;;;;;;;2.65;2.42;;;34.40;54.50;;;;;;6213977;23;19997;-72
2022/06/14 14:10:04;;;;;;;3.25;2.13;;;34.20;53.60;;;;;;6121929;23;20037;-72